createdAt,value
2019-01-21T00:01:01.697Z,73.60
2019-01-21T00:03:29.909Z,73.70
2019-01-21T00:05:58.106Z,73.94
2019-01-21T00:08:26.315Z,73.84
2019-01-21T00:11:13.949Z,73.68
2019-01-21T00:13:42.164Z,73.68
2019-01-21T00:16:10.358Z,73.63
2019-01-21T00:18:38.575Z,73.84
2019-01-21T00:21:26.204Z,74.08
2019-01-21T00:23:54.418Z,74.08
2019-01-21T00:26:22.630Z,73.69
2019-01-21T00:28:50.836Z,73.53
2019-01-21T00:31:19.034Z,73.77
2019-01-21T00:33:47.231Z,73.85
2019-01-21T00:36:34.868Z,73.63
2019-01-21T00:42:11.389Z,73.29
2019-01-21T00:44:39.611Z,73.29
2019-01-21T00:47:07.807Z,73.37
2019-01-21T00:49:36.121Z,73.44
2019-01-21T00:52:04.319Z,73.36
2019-01-21T00:54:32.514Z,73.50
2019-01-21T00:57:00.718Z,73.43
2019-01-21T00:59:48.365Z,73.55
2019-01-21T01:02:16.551Z,73.55
2019-01-21T01:04:44.750Z,73.24
2019-01-21T01:07:12.959Z,73.42
2019-01-21T01:09:41.157Z,73.69
2019-01-21T01:12:09.356Z,74.56
2019-01-21T01:14:37.555Z,73.87
2019-01-21T01:17:25.195Z,74.23
2019-01-21T01:19:53.386Z,74.23
2019-01-21T01:22:21.605Z,73.96
2019-01-21T01:24:49.802Z,73.84
2019-01-21T01:27:37.440Z,73.83
2019-01-21T01:33:19.729Z,73.58
2019-01-21T01:35:47.927Z,73.50
2019-01-21T01:38:35.567Z,74.07
2019-01-21T01:41:03.760Z,74.07
2019-01-21T01:43:31.976Z,73.96
2019-01-21T01:46:19.603Z,74.49
2019-01-21T01:49:00.660Z,74.08
2019-01-21T01:51:28.853Z,74.08
2019-01-21T01:53:57.113Z,74.12
2019-01-21T01:56:25.252Z,74.11
2019-01-21T01:58:53.457Z,74.14
2019-01-21T02:01:21.658Z,74.35
2019-01-21T02:03:49.865Z,74.58
2019-01-21T02:06:18.067Z,74.45
2019-01-21T02:08:46.286Z,74.60
2019-01-21T02:11:14.481Z,74.52
2019-01-21T02:13:42.690Z,74.51
2019-01-21T02:16:11.072Z,74.50
2019-01-21T02:18:39.312Z,74.53
2019-01-21T02:21:07.509Z,74.71
2019-01-21T02:24:15.822Z,74.71
2019-01-21T02:33:37.489Z,74.71
2019-01-21T02:36:44.502Z,74.97
2019-01-21T02:39:51.503Z,75.06
2019-01-21T02:42:58.497Z,74.92
2019-01-21T02:46:05.517Z,74.70
2019-01-21T02:49:04.833Z,74.97
2019-01-21T02:52:11.827Z,74.80
2019-01-21T02:55:19.115Z,74.80
2019-01-21T03:04:41.520Z,74.28
2019-01-21T03:07:21.841Z,74.18
2019-01-21T03:10:28.851Z,74.18
2019-01-21T03:16:49.370Z,74.40
2019-01-21T03:22:49.526Z,74.12
2019-01-21T03:34:59.624Z,74.06
2019-01-21T03:38:07.934Z,74.13
2019-01-21T03:41:14.944Z,74.57
2019-01-21T03:53:25.210Z,74.11
2019-01-21T04:02:34.662Z,74.00
2019-01-21T04:11:43.396Z,73.92
2019-01-21T04:14:50.403Z,73.99
2019-01-21T04:17:57.404Z,74.46
2019-01-21T04:21:04.408Z,74.57
2019-01-21T04:24:11.420Z,74.89
2019-01-21T04:33:33.242Z,74.69
2019-01-21T04:36:40.246Z,74.94
2019-01-21T04:39:48.560Z,74.90
2019-01-21T04:42:55.789Z,74.67
2019-01-21T04:46:02.743Z,74.88
2019-01-21T04:49:11.132Z,74.94
2019-01-21T04:52:18.126Z,74.55
2019-01-21T04:55:26.718Z,74.34
2019-01-21T05:01:34.465Z,74.58
2019-01-21T05:04:42.855Z,74.60
2019-01-21T05:07:49.853Z,74.45
2019-01-21T05:10:58.236Z,74.41
2019-01-21T05:17:05.805Z,74.33
2019-01-21T05:20:12.863Z,74.46
2019-01-21T05:29:34.499Z,74.48
2019-01-21T05:32:41.516Z,74.60
2019-01-21T05:35:49.004Z,74.56
2019-01-21T05:42:10.459Z,74.44
2019-01-21T05:45:18.844Z,74.22
2019-01-21T05:51:39.482Z,74.28
2019-01-21T06:00:48.513Z,74.00
2019-01-21T06:06:48.747Z,73.79
2019-01-21T06:09:55.770Z,73.98
2019-01-21T06:13:02.778Z,73.87
2019-01-21T06:16:11.154Z,73.65
2019-01-21T06:19:18.149Z,73.50
2019-01-21T06:22:26.465Z,73.33
2019-01-21T06:31:35.479Z,73.40
2019-01-21T06:34:42.497Z,73.34
2019-01-21T06:37:49.514Z,73.42
2019-01-21T06:43:57.673Z,73.72
2019-01-21T06:47:05.997Z,73.75
2019-01-21T06:50:12.996Z,73.89
2019-01-21T06:53:20.002Z,73.71
2019-01-21T07:08:30.179Z,73.28
2019-01-21T07:17:39.700Z,73.30
2019-01-21T07:20:46.707Z,73.29
2019-01-21T07:23:55.021Z,72.97
2019-01-21T07:30:16.164Z,73.39
2019-01-21T07:33:24.483Z,73.43
2019-01-21T07:39:45.490Z,73.23
2019-01-21T07:45:52.937Z,73.18
2019-01-21T07:48:59.961Z,73.28
2019-01-21T07:58:21.844Z,72.98
2019-01-21T08:01:30.156Z,73.05
2019-01-21T08:04:37.164Z,73.07
2019-01-21T08:13:46.540Z,73.42
2019-01-21T08:16:54.856Z,73.19
2019-01-21T08:26:04.504Z,73.22
2019-01-21T08:35:13.809Z,73.05
2019-01-21T08:38:20.818Z,72.97
2019-01-21T08:41:27.832Z,72.86
2019-01-21T08:44:34.828Z,72.70
2019-01-21T08:47:41.838Z,72.52
2019-01-21T09:08:56.484Z,72.51
2019-01-21T09:12:03.505Z,72.51
2019-01-21T09:18:23.943Z,72.98
2019-01-21T09:21:04.306Z,72.73
2019-01-21T09:24:12.654Z,72.73
2019-01-21T09:30:20.778Z,72.30
2019-01-21T09:33:27.794Z,72.08
2019-01-21T09:36:34.780Z,71.72
2019-01-21T09:39:41.808Z,71.89
2019-01-21T09:48:11.432Z,71.89
2019-01-21T09:51:00.020Z,71.61
2019-01-21T09:53:28.235Z,71.78
2019-01-21T09:55:56.467Z,71.60
2019-01-21T09:58:24.743Z,72.00
2019-01-21T10:00:52.944Z,71.84
2019-01-21T10:03:21.224Z,71.81
2019-01-21T10:06:29.524Z,71.36
2019-01-21T10:09:37.902Z,70.90
2019-01-21T10:15:51.418Z,70.76
2019-01-21T10:18:58.418Z,70.62
2019-01-21T10:22:05.419Z,70.40
2019-01-21T10:25:13.797Z,70.56
2019-01-21T10:31:35.145Z,70.92
2019-01-21T10:34:42.156Z,70.45
2019-01-21T10:37:49.142Z,70.70
2019-01-21T10:40:57.477Z,70.65
2019-01-21T10:44:04.462Z,71.06
2019-01-21T10:47:12.837Z,70.48
2019-01-21T10:50:19.846Z,70.73
2019-01-21T11:05:30.026Z,70.53
2019-01-21T11:17:53.309Z,70.76
2019-01-21T11:21:00.314Z,70.45
2019-01-21T11:39:26.910Z,69.24
2019-01-21T11:42:33.912Z,69.25
2019-01-21T11:45:40.898Z,69.35
2019-01-21T11:48:49.213Z,69.16
2019-01-21T11:57:58.604Z,68.47
2019-01-21T12:07:19.947Z,68.69
2019-01-21T12:10:27.769Z,68.82
2019-01-21T12:13:36.081Z,68.68
2019-01-21T12:16:43.067Z,68.82
2019-01-21T12:19:51.387Z,68.24
2019-01-21T12:22:50.665Z,68.60
2019-01-21T12:29:11.445Z,67.77
2019-01-21T12:32:18.432Z,67.87
2019-01-21T12:35:26.748Z,67.31
2019-01-21T12:38:33.735Z,67.52
2019-01-21T12:41:40.744Z,67.19
2019-01-21T12:44:49.124Z,66.73
2019-01-21T12:47:56.109Z,66.84
2019-01-21T12:51:03.112Z,67.18
2019-01-21T12:54:10.113Z,67.06
2019-01-21T13:03:19.912Z,66.74
2019-01-21T13:12:28.780Z,66.41
2019-01-21T13:15:35.784Z,66.61
2019-01-21T13:21:56.401Z,76.32
2019-01-21T13:25:04.715Z,78.59
2019-01-21T13:28:11.700Z,77.72
2019-01-21T13:31:20.109Z,77.16
2019-01-21T13:34:27.111Z,78.92
2019-01-21T13:37:34.112Z,79.63
2019-01-21T13:40:42.454Z,77.10
2019-01-21T13:47:03.332Z,73.13
2019-01-21T13:50:10.338Z,73.61
2019-01-21T13:53:17.335Z,75.54
2019-01-21T13:56:24.347Z,72.21
2019-01-21T13:59:31.335Z,73.07
2019-01-21T14:02:39.664Z,70.84
2019-01-21T14:05:46.658Z,75.19
2019-01-21T14:12:07.613Z,75.15
2019-01-21T14:18:15.408Z,74.75
2019-01-21T14:21:23.719Z,68.89
2019-01-21T14:27:45.063Z,72.44
2019-01-21T14:30:53.087Z,72.50
2019-01-21T14:34:01.513Z,69.20
2019-01-21T14:52:06.811Z,66.31
2019-01-21T15:04:30.711Z,66.24
2019-01-21T15:10:39.217Z,66.03
2019-01-21T15:13:47.564Z,66.33
2019-01-21T15:23:08.743Z,66.57
2019-01-21T15:26:17.055Z,66.68
2019-01-21T15:35:25.273Z,66.85
2019-01-21T15:38:24.549Z,66.94
2019-01-21T15:41:31.625Z,67.05
2019-01-21T15:50:40.663Z,67.34
2019-01-21T15:59:50.464Z,67.74
2019-01-21T16:17:56.265Z,68.21
2019-01-21T16:30:06.713Z,68.43
2019-01-21T16:33:15.023Z,68.42
2019-01-21T16:36:23.417Z,68.45
2019-01-21T16:42:24.257Z,68.56
2019-01-21T16:44:52.442Z,68.55
2019-01-21T16:47:20.644Z,68.69
2019-01-21T16:49:48.838Z,68.67
2019-01-21T16:52:17.043Z,68.68
2019-01-21T16:54:45.238Z,68.67
2019-01-21T16:57:13.443Z,68.70
2019-01-21T16:59:41.636Z,68.76
2019-01-21T17:02:09.944Z,68.62
2019-01-21T17:04:38.114Z,68.65
2019-01-21T17:07:06.323Z,68.72
2019-01-21T17:09:34.509Z,68.74
2019-01-21T17:12:02.703Z,68.72
2019-01-21T17:14:30.908Z,68.59
2019-01-21T17:16:59.090Z,68.59
2019-01-21T17:19:27.290Z,68.50
2019-01-21T17:21:55.479Z,68.53
2019-01-21T17:24:23.687Z,68.62
2019-01-21T17:26:51.875Z,68.60
2019-01-21T17:29:20.084Z,68.57
2019-01-21T17:31:48.305Z,68.37
2019-01-21T17:34:16.508Z,68.36
2019-01-21T17:36:44.701Z,68.46
2019-01-21T17:39:12.908Z,68.50
2019-01-21T17:41:41.106Z,68.55
2019-01-21T17:44:09.299Z,68.61
2019-01-21T17:46:37.488Z,68.63
2019-01-21T17:49:05.711Z,68.59
2019-01-21T17:51:35.406Z,68.66
2019-01-21T17:54:03.863Z,68.64
2019-01-21T17:56:32.046Z,68.63
2019-01-21T17:59:00.241Z,68.54
2019-01-21T18:01:28.430Z,68.47
2019-01-21T18:03:56.628Z,68.53
2019-01-21T18:06:24.813Z,68.53
2019-01-21T18:08:53.020Z,68.47
2019-01-21T18:11:21.206Z,68.51
2019-01-21T18:14:08.837Z,68.48
2019-01-21T18:16:37.031Z,68.52
2019-01-21T18:19:05.237Z,68.69
2019-01-21T18:21:33.428Z,68.61
2019-01-21T18:24:01.632Z,68.55
2019-01-21T18:26:29.843Z,68.57
2019-01-21T18:28:58.047Z,68.51
2019-01-21T18:31:26.241Z,68.37
2019-01-21T18:33:54.445Z,68.39
2019-01-21T18:36:22.636Z,68.48
2019-01-21T18:38:50.852Z,68.37
2019-01-21T18:41:19.052Z,68.49
2019-01-21T18:43:47.254Z,68.36
2019-01-21T18:46:15.449Z,68.44
2019-01-21T18:48:43.648Z,68.44
2019-01-21T18:51:11.835Z,68.39
2019-01-21T18:53:40.045Z,68.36
2019-01-21T18:56:08.237Z,68.41
2019-01-21T18:58:36.434Z,68.44
2019-01-21T19:01:04.645Z,68.43
2019-01-21T19:03:32.834Z,68.41
2019-01-21T19:06:01.040Z,68.36
2019-01-21T19:08:29.231Z,68.40
2019-01-21T19:10:57.436Z,68.42
2019-01-21T19:13:25.631Z,68.38
2019-01-21T19:15:53.835Z,68.44
2019-01-21T19:18:22.033Z,68.53
2019-01-21T19:20:50.235Z,68.61
2019-01-21T19:23:18.434Z,68.65
2019-01-21T19:25:46.649Z,68.63
2019-01-21T19:28:14.839Z,68.63
2019-01-21T19:30:43.060Z,68.58
2019-01-21T19:33:11.255Z,68.57
2019-01-21T19:35:39.455Z,68.65
2019-01-21T19:38:07.644Z,68.73
2019-01-21T19:40:35.849Z,68.83
2019-01-21T19:43:04.034Z,69.09
2019-01-21T19:45:32.242Z,69.21
2019-01-21T19:48:00.432Z,69.10
2019-01-21T19:50:28.640Z,69.13
2019-01-21T19:52:56.832Z,69.10
2019-01-21T19:56:05.141Z,69.11
2019-01-21T19:58:33.328Z,69.10
2019-01-21T20:01:01.532Z,69.01
2019-01-21T20:03:29.736Z,69.11
2019-01-21T20:05:57.946Z,69.14
2019-01-21T20:08:26.421Z,69.13
2019-01-21T20:10:56.153Z,69.13
2019-01-21T20:13:24.343Z,69.10
2019-01-21T20:15:52.562Z,69.18
2019-01-21T20:18:20.755Z,69.08
2019-01-21T20:20:48.960Z,69.08
2019-01-21T20:23:17.156Z,68.95
2019-01-21T20:25:45.359Z,68.91
2019-01-21T20:28:13.551Z,69.07
2019-01-21T20:30:41.776Z,69.04
2019-01-21T20:33:09.966Z,69.04
2019-01-21T20:35:38.176Z,69.11
2019-01-21T20:38:06.365Z,69.11
2019-01-21T20:40:34.550Z,69.15
2019-01-21T20:43:02.755Z,69.37
2019-01-21T20:45:30.950Z,69.46
2019-01-21T20:47:59.182Z,69.47
2019-01-21T20:53:41.559Z,69.45
2019-01-21T20:56:09.751Z,69.50
2019-01-21T20:58:37.961Z,69.55
2019-01-21T21:01:06.153Z,69.61
2019-01-21T21:03:34.356Z,69.67
2019-01-21T21:06:02.609Z,69.76
2019-01-21T21:08:30.749Z,69.85
2019-01-21T21:10:58.942Z,69.88
2019-01-21T21:13:27.146Z,69.82
2019-01-21T21:15:55.341Z,69.81
2019-01-21T21:18:23.547Z,70.06
2019-01-21T21:20:51.740Z,70.13
2019-01-21T21:23:19.952Z,70.47
2019-01-21T21:25:48.135Z,70.61
2019-01-21T21:28:16.349Z,70.73
2019-01-21T21:30:44.536Z,70.92
2019-01-21T21:33:12.790Z,71.20
2019-01-21T21:35:40.986Z,71.66
2019-01-21T21:38:09.187Z,71.94
2019-01-21T21:40:37.380Z,72.02
2019-01-21T21:43:05.581Z,72.67
2019-01-21T21:45:35.501Z,72.76
2019-01-21T21:48:03.699Z,73.10
2019-01-21T21:51:12.013Z,73.15
2019-01-21T21:53:40.231Z,73.18
2019-01-21T21:56:08.419Z,73.48
2019-01-21T21:58:36.645Z,73.92
2019-01-21T22:01:04.840Z,74.78
2019-01-21T22:03:52.480Z,74.78
2019-01-21T22:06:20.666Z,74.79
2019-01-21T22:08:48.902Z,74.60
2019-01-21T22:11:17.061Z,74.55
2019-01-21T22:13:45.273Z,74.52
2019-01-21T22:16:15.189Z,74.58
2019-01-21T22:18:43.418Z,74.78
2019-01-21T22:21:11.665Z,74.98
2019-01-21T22:23:39.845Z,75.01
2019-01-21T22:26:08.049Z,75.17
2019-01-21T22:28:36.238Z,75.43
2019-01-21T22:31:04.439Z,75.68
2019-01-21T22:33:32.630Z,75.79
2019-01-21T22:36:00.836Z,75.86
2019-01-21T22:38:29.027Z,76.05
2019-01-21T22:40:57.228Z,76.30
2019-01-21T22:43:27.142Z,76.40
2019-01-21T22:45:55.348Z,76.34
2019-01-21T22:48:23.534Z,76.51
2019-01-21T22:51:11.164Z,76.69
2019-01-21T22:53:39.426Z,76.87
2019-01-21T22:56:07.640Z,76.86
2019-01-21T22:58:35.827Z,77.09
2019-01-21T23:01:44.152Z,77.25
2019-01-21T23:04:12.344Z,77.35
2019-01-21T23:06:40.548Z,77.39
2019-01-21T23:09:08.743Z,77.35
2019-01-21T23:11:36.942Z,77.48
2019-01-21T23:14:05.137Z,77.45
2019-01-21T23:16:33.339Z,77.38
2019-01-21T23:19:01.538Z,77.62
2019-01-21T23:21:29.744Z,77.80
2019-01-21T23:23:57.938Z,77.87
2019-01-21T23:26:26.140Z,77.91
2019-01-21T23:28:54.322Z,77.91
2019-01-21T23:31:22.530Z,77.92
2019-01-21T23:33:50.719Z,77.91
2019-01-21T23:36:18.923Z,77.94
2019-01-21T23:38:47.113Z,77.96
2019-01-21T23:41:17.037Z,78.14
2019-01-21T23:43:45.239Z,78.19
2019-01-21T23:46:13.436Z,78.23
2019-01-21T23:48:41.629Z,78.32
2019-01-21T23:51:09.815Z,78.42
2019-01-21T23:53:38.025Z,78.42
2019-01-21T23:56:06.293Z,78.41
2019-01-21T23:59:14.619Z,78.38
